createdAt,value
2022-10-04T00:01:58.194Z,85.99
2022-10-04T00:04:24.694Z,85.47
2022-10-04T00:06:59.714Z,85.54
2022-10-04T00:09:29.382Z,85.58
2022-10-04T00:11:57.045Z,86.72
2022-10-04T00:14:50.833Z,86.58
2022-10-04T00:17:22.265Z,86.98
2022-10-04T00:19:50.522Z,87.51
2022-10-04T00:22:24.037Z,86.94
2022-10-04T00:25:09.920Z,86.10
2022-10-04T00:27:37.390Z,86.17
2022-10-04T00:30:03.763Z,86.15
2022-10-04T00:32:42.828Z,87.44
2022-10-04T00:35:24.547Z,88.00
2022-10-04T00:38:06.275Z,88.38
2022-10-04T00:40:36.886Z,88.23
2022-10-04T00:43:26.632Z,88.00
2022-10-04T00:45:57.041Z,87.65
2022-10-04T00:48:25.725Z,88.35
2022-10-04T00:51:02.558Z,87.98
2022-10-04T00:53:41.232Z,87.44
2022-10-04T00:56:11.398Z,86.81
2022-10-04T00:59:03.781Z,87.42
2022-10-04T01:01:33.908Z,87.20
2022-10-04T01:04:02.388Z,88.01
2022-10-04T01:06:29.624Z,88.03
2022-10-04T01:09:01.224Z,87.74
2022-10-04T01:11:29.522Z,88.72
2022-10-04T01:14:04.565Z,88.11
2022-10-04T01:16:35.039Z,88.33
2022-10-04T01:19:20.750Z,87.77
2022-10-04T01:21:47.605Z,87.00
2022-10-04T01:24:21.226Z,87.90
2022-10-04T01:26:47.699Z,87.47
2022-10-04T01:29:16.890Z,87.96
2022-10-04T01:31:50.144Z,87.66
2022-10-04T01:34:18.477Z,87.83
2022-10-04T01:36:47.165Z,88.78
2022-10-04T01:39:14.686Z,89.25
2022-10-04T01:41:44.660Z,88.42
2022-10-04T01:44:16.071Z,88.74
2022-10-04T01:46:42.633Z,89.10
2022-10-04T01:49:16.438Z,90.01
2022-10-04T01:51:49.824Z,89.92
2022-10-04T01:54:18.295Z,89.49
2022-10-04T01:56:50.920Z,89.08
2022-10-04T01:59:21.321Z,88.97
2022-10-04T02:01:52.383Z,88.31
2022-10-04T02:04:27.504Z,89.16
2022-10-04T02:06:56.534Z,90.27
2022-10-04T02:09:34.028Z,90.63
2022-10-04T02:12:01.215Z,90.91
2022-10-04T02:14:29.710Z,90.76
2022-10-04T02:16:56.395Z,90.35
2022-10-04T02:19:24.954Z,88.44
2022-10-04T02:21:52.210Z,89.71
2022-10-04T02:24:19.326Z,89.37
2022-10-04T02:26:49.288Z,89.56
2022-10-04T02:29:15.813Z,90.29
2022-10-04T02:32:01.058Z,89.96
2022-10-04T02:34:27.510Z,89.45
2022-10-04T02:36:54.025Z,89.92
2022-10-04T02:39:26.687Z,90.09
2022-10-04T02:42:00.450Z,90.31
2022-10-04T02:44:29.865Z,90.86
2022-10-04T02:47:15.188Z,90.40
2022-10-04T02:50:01.825Z,89.99
2022-10-04T02:52:37.539Z,89.59
2022-10-04T02:55:07.284Z,90.27
2022-10-04T02:57:34.515Z,90.90
2022-10-04T03:00:16.224Z,91.45
2022-10-04T03:03:02.606Z,92.52
2022-10-04T03:05:29.102Z,91.81
2022-10-04T03:07:56.439Z,91.55
2022-10-04T03:10:23.065Z,90.17
2022-10-04T03:12:50.818Z,90.69
2022-10-04T03:15:18.023Z,90.99
2022-10-04T03:17:44.582Z,90.68
2022-10-04T03:20:15.617Z,91.24
2022-10-04T03:22:46.904Z,89.98
2022-10-04T03:25:26.247Z,90.80
2022-10-04T03:27:56.779Z,91.55
2022-10-04T03:30:23.301Z,91.47
2022-10-04T03:32:50.356Z,91.77
2022-10-04T03:35:37.021Z,92.26
2022-10-04T03:38:06.788Z,92.20
2022-10-04T03:40:33.686Z,91.49
2022-10-04T03:43:02.182Z,90.76
2022-10-04T03:45:29.440Z,90.59
2022-10-04T03:47:58.609Z,91.64
2022-10-04T03:50:27.838Z,91.27
2022-10-04T03:52:56.765Z,90.27
2022-10-04T03:55:26.158Z,90.50
2022-10-04T03:57:52.591Z,91.26
2022-10-04T04:00:19.534Z,91.04
2022-10-04T04:02:52.266Z,91.89
2022-10-04T04:05:18.772Z,91.62
2022-10-04T04:07:45.182Z,91.66
2022-10-04T04:10:21.290Z,92.03
2022-10-04T04:12:56.873Z,92.26
2022-10-04T04:15:23.619Z,92.73
2022-10-04T04:17:55.050Z,92.41
2022-10-04T04:20:29.471Z,93.20
2022-10-04T04:23:22.038Z,92.79
2022-10-04T04:25:50.779Z,92.41
2022-10-04T04:28:32.481Z,92.70
2022-10-04T04:31:02.477Z,93.41
2022-10-04T04:33:35.458Z,93.59
2022-10-04T04:36:06.586Z,93.55
2022-10-04T04:38:35.235Z,93.09
2022-10-04T04:41:11.083Z,93.87
2022-10-04T04:43:42.846Z,93.86
2022-10-04T04:46:26.536Z,93.12
2022-10-04T04:49:01.167Z,93.38
2022-10-04T04:51:28.154Z,93.39
2022-10-04T04:53:55.642Z,93.08
2022-10-04T04:56:27.018Z,93.96
2022-10-04T04:58:55.875Z,93.58
2022-10-04T05:01:26.916Z,93.43
2022-10-04T05:04:19.994Z,95.22
2022-10-04T05:06:49.019Z,94.40
2022-10-04T05:09:22.742Z,95.08
2022-10-04T05:11:50.111Z,94.15
2022-10-04T05:14:17.774Z,93.70
2022-10-04T05:16:44.294Z,93.60
2022-10-04T05:19:22.522Z,93.70
2022-10-04T05:21:49.918Z,94.45
2022-10-04T05:24:25.442Z,94.38
2022-10-04T05:27:03.787Z,95.26
2022-10-04T05:29:35.598Z,93.81
2022-10-04T05:32:05.196Z,93.75
2022-10-04T05:34:36.373Z,93.54
2022-10-04T05:37:22.265Z,94.20
2022-10-04T05:40:03.939Z,94.96
2022-10-04T05:42:30.359Z,94.52
2022-10-04T05:44:57.877Z,93.49
2022-10-04T05:47:28.946Z,93.11
2022-10-04T05:49:57.796Z,93.19
2022-10-04T05:52:33.462Z,92.88
2022-10-04T05:55:12.083Z,92.32
2022-10-04T05:57:50.799Z,93.33
2022-10-04T06:00:21.119Z,92.71
2022-10-04T06:02:54.927Z,92.64
2022-10-04T06:05:40.266Z,91.72
2022-10-04T06:08:16.959Z,91.67
2022-10-04T06:10:46.154Z,91.83
2022-10-04T06:13:30.953Z,91.85
2022-10-04T06:16:03.464Z,90.26
2022-10-04T06:18:42.005Z,89.10
2022-10-04T06:21:27.150Z,89.05
2022-10-04T06:24:10.436Z,90.14
2022-10-04T06:27:03.097Z,90.68
2022-10-04T06:29:38.441Z,89.03
2022-10-04T06:32:21.153Z,88.52
2022-10-04T06:34:55.032Z,87.45
2022-10-04T06:37:39.951Z,86.55
2022-10-04T06:40:18.305Z,85.39
2022-10-04T06:43:00.089Z,86.48
2022-10-04T06:45:35.880Z,85.90
2022-10-04T06:48:11.401Z,81.51
2022-10-04T06:50:37.830Z,84.92
2022-10-04T06:53:16.571Z,82.05
2022-10-04T06:56:04.690Z,81.43
2022-10-04T06:58:49.949Z,81.54
2022-10-04T07:01:23.991Z,79.67
2022-10-04T07:04:05.880Z,79.28
2022-10-04T07:06:48.512Z,78.76
2022-10-04T07:09:19.257Z,79.00
2022-10-04T07:11:57.710Z,75.42
2022-10-04T07:14:37.080Z,75.77
2022-10-04T07:17:10.167Z,74.29
2022-10-04T07:19:44.706Z,74.55
2022-10-04T07:22:17.556Z,73.67
2022-10-04T07:24:59.297Z,71.37
2022-10-04T07:27:42.772Z,68.95
2022-10-04T07:30:14.683Z,65.53
2022-10-04T07:32:45.369Z,62.56
2022-10-04T07:35:14.551Z,61.42
2022-10-04T07:37:59.824Z,60.62
2022-10-04T07:40:30.107Z,61.22
2022-10-04T07:43:17.635Z,60.02
2022-10-04T07:45:44.152Z,56.65
2022-10-04T07:48:15.454Z,55.11
2022-10-04T07:50:48.018Z,55.16
2022-10-04T07:53:37.606Z,56.71
2022-10-04T07:56:21.084Z,56.58
2022-10-04T07:58:57.801Z,53.88
2022-10-04T08:01:50.333Z,55.77
2022-10-04T08:04:22.826Z,54.98
2022-10-04T08:06:58.739Z,52.16
2022-10-04T08:09:33.886Z,50.83
2022-10-04T08:12:14.125Z,51.24
2022-10-04T08:14:59.213Z,53.84
2022-10-04T08:17:37.954Z,49.74
2022-10-04T08:20:23.273Z,49.46
2022-10-04T08:23:28.216Z,50.48
2022-10-04T08:25:57.222Z,49.88
2022-10-04T08:28:51.135Z,48.27
2022-10-04T08:31:17.680Z,49.80
2022-10-04T08:33:47.145Z,49.87
2022-10-04T08:36:32.484Z,49.82
2022-10-04T08:39:03.365Z,49.29
2022-10-04T08:41:48.719Z,50.45
2022-10-04T08:44:32.917Z,50.46
2022-10-04T08:47:21.850Z,47.49
2022-10-04T08:49:58.962Z,50.95
2022-10-04T08:52:44.266Z,46.87
2022-10-04T08:55:32.195Z,47.62
2022-10-04T08:58:16.077Z,46.84
2022-10-04T09:00:51.607Z,47.03
2022-10-04T09:03:35.466Z,49.19
2022-10-04T09:06:14.295Z,46.67
2022-10-04T09:08:59.251Z,46.38
2022-10-04T09:11:38.322Z,47.02
2022-10-04T09:14:17.324Z,46.08
2022-10-04T09:17:02.695Z,45.67
2022-10-04T09:19:47.695Z,44.75
2022-10-04T09:22:14.518Z,46.18
2022-10-04T09:25:00.875Z,42.35
2022-10-04T09:27:53.705Z,41.20
2022-10-04T09:30:19.732Z,38.06
2022-10-04T09:33:01.483Z,38.03
2022-10-04T09:35:36.435Z,37.28
2022-10-04T09:38:19.700Z,35.19
2022-10-04T09:40:55.119Z,35.88
2022-10-04T09:43:28.140Z,36.35
2022-10-04T09:46:04.809Z,34.72
2022-10-04T09:48:54.689Z,32.65
2022-10-04T09:51:26.106Z,33.64
2022-10-04T09:53:58.681Z,34.06
2022-10-04T09:56:28.185Z,32.94
2022-10-04T09:59:02.057Z,33.85
2022-10-04T10:01:31.644Z,33.68
2022-10-04T10:04:04.224Z,33.36
2022-10-04T10:06:36.690Z,31.42
2022-10-04T10:09:09.775Z,33.01
2022-10-04T10:12:04.417Z,32.77
2022-10-04T10:14:49.418Z,32.08
2022-10-04T10:17:37.892Z,31.82
2022-10-04T10:20:04.859Z,29.56
2022-10-04T10:22:46.657Z,30.86
2022-10-04T10:25:22.098Z,31.25
2022-10-04T10:27:48.545Z,30.94
2022-10-04T10:30:20.900Z,33.09
2022-10-04T10:33:06.111Z,31.54
2022-10-04T10:35:48.734Z,31.56
2022-10-04T10:38:29.231Z,29.97
2022-10-04T10:40:59.916Z,31.29
2022-10-04T10:43:38.643Z,30.28
2022-10-04T10:46:42.638Z,30.00
2022-10-04T10:49:09.312Z,29.51
2022-10-04T10:51:55.820Z,29.65
2022-10-04T10:54:39.087Z,30.04
2022-10-04T10:57:24.830Z,30.48
2022-10-04T11:00:04.750Z,30.16
2022-10-04T11:02:48.345Z,30.50
2022-10-04T11:05:35.031Z,29.60
2022-10-04T11:08:20.152Z,30.87
2022-10-04T11:11:05.331Z,30.07
2022-10-04T11:13:50.615Z,28.61
2022-10-04T11:16:35.713Z,30.48
2022-10-04T11:19:11.288Z,30.12
2022-10-04T11:21:56.128Z,31.97
2022-10-04T11:24:44.928Z,30.87
2022-10-04T11:27:14.316Z,28.59
2022-10-04T11:29:47.121Z,31.63
2022-10-04T11:32:32.359Z,32.45
2022-10-04T11:35:08.045Z,29.63
2022-10-04T11:37:34.509Z,28.44
2022-10-04T11:40:08.689Z,29.75
2022-10-04T11:42:38.251Z,28.84
2022-10-04T11:45:19.805Z,27.92
2022-10-04T11:47:46.279Z,28.53
2022-10-04T11:50:32.166Z,30.78
2022-10-04T11:53:19.101Z,28.81
2022-10-04T11:55:57.219Z,28.44
2022-10-04T11:58:26.609Z,30.26
2022-10-04T12:01:00.859Z,29.86
2022-10-04T12:03:41.343Z,28.59
2022-10-04T12:06:07.754Z,28.54
2022-10-04T12:08:37.370Z,28.15
2022-10-04T12:11:13.412Z,30.07
2022-10-04T12:13:42.671Z,29.04
2022-10-04T12:16:29.813Z,28.62
2022-10-04T12:19:09.221Z,27.54
2022-10-04T12:21:54.831Z,28.26
2022-10-04T12:24:41.505Z,28.22
2022-10-04T12:27:34.119Z,27.67
2022-10-04T12:30:11.775Z,30.93
2022-10-04T12:32:57.753Z,27.73
2022-10-04T12:35:30.866Z,28.02
2022-10-04T12:38:01.331Z,29.25
2022-10-04T12:40:33.071Z,29.00
2022-10-04T12:43:10.029Z,28.75
2022-10-04T12:45:52.758Z,27.74
2022-10-04T12:48:34.529Z,29.22
2022-10-04T12:51:19.743Z,28.10
2022-10-04T12:54:05.285Z,29.41
2022-10-04T12:56:51.079Z,28.49
2022-10-04T12:59:22.693Z,29.82
2022-10-04T13:02:05.539Z,28.54
2022-10-04T13:04:39.245Z,28.72
2022-10-04T13:07:14.846Z,28.40
2022-10-04T13:10:11.998Z,28.66
2022-10-04T13:12:39.562Z,28.98
2022-10-04T13:15:09.128Z,31.92
2022-10-04T13:17:59.615Z,28.84
2022-10-04T13:20:44.784Z,28.69
2022-10-04T13:23:29.817Z,27.79
2022-10-04T13:26:07.904Z,28.99
2022-10-04T13:28:42.385Z,30.96
2022-10-04T13:31:48.814Z,30.16
2022-10-04T13:34:19.820Z,29.95
2022-10-04T13:37:12.336Z,28.67
2022-10-04T13:39:44.524Z,29.83
2022-10-04T13:42:12.642Z,28.96
2022-10-04T13:44:42.358Z,29.37
2022-10-04T13:47:27.785Z,31.12
2022-10-04T13:50:00.248Z,30.13
2022-10-04T13:53:02.231Z,30.03
2022-10-04T13:56:06.868Z,30.59
2022-10-04T13:58:48.549Z,29.63
2022-10-04T14:01:18.011Z,30.28
2022-10-04T14:03:44.784Z,31.27
2022-10-04T14:06:23.142Z,29.71
2022-10-04T14:08:55.598Z,30.05
2022-10-04T14:11:41.690Z,30.23
2022-10-04T14:14:17.345Z,31.27
2022-10-04T14:16:57.413Z,31.77
2022-10-04T14:20:00.782Z,31.01
2022-10-04T14:22:27.724Z,30.38
2022-10-04T14:24:57.042Z,30.57
2022-10-04T14:27:39.902Z,31.60
2022-10-04T14:30:23.103Z,32.57
2022-10-04T14:32:55.729Z,31.21
2022-10-04T14:35:26.036Z,30.35
2022-10-04T14:38:13.269Z,31.73
2022-10-04T14:40:58.610Z,32.63
2022-10-04T14:43:44.262Z,34.01
2022-10-04T14:46:14.257Z,33.10
2022-10-04T14:48:42.551Z,31.94
2022-10-04T14:51:19.370Z,32.62
2022-10-04T14:53:53.962Z,32.13
2022-10-04T14:56:27.490Z,33.14
2022-10-04T14:59:00.010Z,33.77
2022-10-04T15:01:27.801Z,33.25
2022-10-04T15:04:14.015Z,34.56
2022-10-04T15:06:48.549Z,37.06
2022-10-04T15:09:40.418Z,36.58
2022-10-04T15:12:40.597Z,37.23
2022-10-04T15:15:14.233Z,35.39
2022-10-04T15:17:43.332Z,39.39
2022-10-04T15:20:20.004Z,40.63
2022-10-04T15:22:50.734Z,41.26
2022-10-04T15:25:35.683Z,41.81
2022-10-04T15:28:04.835Z,43.30
2022-10-04T15:30:49.399Z,43.64
2022-10-04T15:33:32.776Z,44.23
2022-10-04T15:36:02.282Z,46.65
2022-10-04T15:38:34.866Z,48.21
2022-10-04T15:41:03.278Z,49.57
2022-10-04T15:43:31.874Z,50.10
2022-10-04T15:46:03.549Z,49.12
2022-10-04T15:48:48.853Z,50.07
2022-10-04T15:51:15.295Z,50.70
2022-10-04T15:53:54.978Z,50.80
2022-10-04T15:56:33.143Z,52.60
2022-10-04T15:59:20.302Z,53.20
2022-10-04T16:02:02.106Z,53.03
2022-10-04T16:04:37.577Z,55.42
2022-10-04T16:07:07.022Z,55.50
2022-10-04T16:09:45.171Z,56.63
2022-10-04T16:12:21.115Z,57.05
2022-10-04T16:14:59.610Z,58.14
2022-10-04T16:17:53.173Z,58.83
2022-10-04T16:20:27.932Z,58.21
2022-10-04T16:23:15.554Z,57.95
2022-10-04T16:25:42.362Z,60.48
2022-10-04T16:28:29.519Z,60.40
2022-10-04T16:31:19.911Z,62.05
2022-10-04T16:34:07.132Z,60.08
2022-10-04T16:36:43.145Z,60.53
2022-10-04T16:39:29.209Z,62.15
2022-10-04T16:41:59.782Z,62.89
2022-10-04T16:44:40.608Z,62.91
2022-10-04T16:47:19.010Z,64.02
2022-10-04T16:49:50.926Z,64.09
2022-10-04T16:52:37.600Z,63.94
2022-10-04T16:55:22.918Z,64.73
2022-10-04T16:58:21.523Z,65.39
2022-10-04T17:00:48.792Z,66.66
2022-10-04T17:03:25.481Z,67.09
2022-10-04T17:06:11.748Z,67.65
2022-10-04T17:08:47.836Z,68.92
2022-10-04T17:11:28.881Z,69.56
2022-10-04T17:14:22.273Z,68.57
2022-10-04T17:16:56.856Z,68.45
2022-10-04T17:19:42.465Z,69.89
2022-10-04T17:22:24.340Z,69.69
2022-10-04T17:25:09.626Z,69.21
2022-10-04T17:27:39.126Z,69.00
2022-10-04T17:30:19.430Z,69.44
2022-10-04T17:33:07.507Z,70.75
2022-10-04T17:35:52.719Z,71.35
2022-10-04T17:38:35.196Z,72.09
2022-10-04T17:41:17.328Z,72.35
2022-10-04T17:44:03.989Z,75.07
2022-10-04T17:46:30.493Z,77.49
2022-10-04T17:49:22.014Z,77.73
2022-10-04T17:52:12.637Z,77.74
2022-10-04T17:54:57.538Z,77.92
2022-10-04T17:57:27.385Z,76.36
2022-10-04T17:59:58.050Z,75.71
2022-10-04T18:02:43.338Z,76.12
2022-10-04T18:05:19.135Z,76.83
2022-10-04T18:07:52.571Z,76.23
2022-10-04T18:10:27.310Z,76.06
2022-10-04T18:13:00.043Z,76.54
2022-10-04T18:15:43.838Z,76.20
2022-10-04T18:18:10.313Z,76.07
2022-10-04T18:20:45.436Z,75.05
2022-10-04T18:23:17.278Z,76.16
2022-10-04T18:25:44.309Z,77.64
2022-10-04T18:28:10.727Z,76.76
2022-10-04T18:30:46.543Z,76.08
2022-10-04T18:33:16.855Z,70.84
2022-10-04T18:36:02.325Z,73.67
2022-10-04T18:38:29.177Z,75.47
2022-10-04T18:40:58.033Z,78.17
2022-10-04T18:43:29.776Z,77.10
2022-10-04T18:46:01.322Z,77.81
2022-10-04T18:48:50.907Z,79.18
2022-10-04T18:51:23.307Z,81.66
2022-10-04T18:53:57.171Z,81.25
2022-10-04T18:56:24.026Z,80.03
2022-10-04T18:59:38.471Z,79.73
2022-10-04T19:02:12.688Z,78.69
2022-10-04T19:04:39.206Z,78.91
2022-10-04T19:07:10.743Z,79.21
2022-10-04T19:09:55.995Z,78.79
2022-10-04T19:12:31.177Z,79.07
2022-10-04T19:15:16.322Z,80.55
2022-10-04T19:18:01.669Z,81.14
2022-10-04T19:20:38.396Z,81.43
2022-10-04T19:23:15.450Z,80.89
2022-10-04T19:26:17.685Z,81.20
2022-10-04T19:28:38.901Z,80.11
2022-10-04T19:31:21.667Z,80.62
2022-10-04T19:34:06.984Z,81.92
2022-10-04T19:36:33.900Z,81.29
2022-10-04T19:39:19.154Z,81.13
2022-10-04T19:41:49.198Z,81.49
2022-10-04T19:44:26.051Z,81.79
2022-10-04T19:46:56.074Z,82.02
2022-10-04T19:49:34.764Z,81.96
2022-10-04T19:52:14.276Z,82.43
2022-10-04T19:54:40.813Z,81.89
2022-10-04T19:57:12.578Z,82.31
2022-10-04T19:59:40.713Z,81.68
2022-10-04T20:02:08.534Z,82.35
2022-10-04T20:04:35.129Z,83.12
2022-10-04T20:07:03.153Z,83.52
2022-10-04T20:09:51.385Z,83.16
2022-10-04T20:12:47.255Z,82.77
2022-10-04T20:15:16.490Z,82.57
2022-10-04T20:17:46.123Z,83.38
2022-10-04T20:20:17.143Z,84.85
2022-10-04T20:22:49.367Z,84.89
2022-10-04T20:25:34.596Z,85.53
2022-10-04T20:28:02.171Z,85.25
2022-10-04T20:30:47.794Z,84.97
2022-10-04T20:33:34.191Z,84.72
2022-10-04T20:36:11.420Z,84.31
2022-10-04T20:38:47.018Z,85.81
2022-10-04T20:41:28.750Z,85.19
2022-10-04T20:43:56.850Z,85.00
2022-10-04T20:46:24.404Z,85.24
2022-10-04T20:48:52.492Z,85.36
2022-10-04T20:51:21.884Z,85.82
2022-10-04T20:53:52.130Z,85.71
2022-10-04T20:56:21.030Z,85.61
2022-10-04T20:58:51.798Z,85.87
2022-10-04T21:01:41.217Z,85.80
2022-10-04T21:04:34.005Z,85.17
2022-10-04T21:07:02.190Z,85.42
2022-10-04T21:09:29.841Z,85.47
2022-10-04T21:11:57.145Z,85.59
2022-10-04T21:14:33.983Z,85.22
2022-10-04T21:17:02.969Z,86.34
2022-10-04T21:19:32.696Z,86.53
2022-10-04T21:21:59.929Z,86.10
2022-10-04T21:24:46.683Z,86.00
2022-10-04T21:27:25.390Z,86.96
2022-10-04T21:29:53.642Z,88.25
2022-10-04T21:32:23.600Z,86.73
2022-10-04T21:34:54.608Z,86.27
2022-10-04T21:37:21.615Z,86.97
2022-10-04T21:39:48.030Z,87.00
2022-10-04T21:42:14.710Z,87.15
2022-10-04T21:44:41.266Z,86.54
2022-10-04T21:47:07.689Z,86.67
2022-10-04T21:49:34.323Z,87.39
2022-10-04T21:52:00.811Z,87.37
2022-10-04T21:54:27.223Z,86.98
2022-10-04T21:56:54.158Z,86.71
2022-10-04T21:59:20.897Z,86.25
2022-10-04T22:01:47.374Z,87.51
2022-10-04T22:04:13.922Z,87.55
2022-10-04T22:06:40.475Z,88.20
2022-10-04T22:09:07.241Z,87.63
2022-10-04T22:11:33.915Z,87.29
2022-10-04T22:14:00.333Z,88.18
2022-10-04T22:16:26.992Z,88.35
2022-10-04T22:18:53.504Z,89.20
2022-10-04T22:21:20.051Z,89.06
2022-10-04T22:23:46.587Z,89.27
2022-10-04T22:26:16.376Z,89.67
2022-10-04T22:28:53.218Z,89.12
2022-10-04T22:31:21.252Z,88.06
2022-10-04T22:33:49.571Z,88.55
2022-10-04T22:36:19.070Z,88.77
2022-10-04T22:38:48.976Z,88.72
2022-10-04T22:41:16.546Z,87.63
2022-10-04T22:43:42.989Z,88.12
2022-10-04T22:46:17.697Z,88.96
2022-10-04T22:48:45.833Z,89.13
2022-10-04T22:51:12.897Z,89.83
2022-10-04T22:53:46.609Z,90.35
2022-10-04T22:56:13.929Z,90.08
2022-10-04T22:58:41.175Z,89.36
2022-10-04T23:01:14.953Z,89.81
2022-10-04T23:03:44.547Z,89.82
2022-10-04T23:06:14.198Z,89.40
2022-10-04T23:08:43.925Z,89.21
2022-10-04T23:11:10.581Z,89.84
2022-10-04T23:13:37.704Z,89.50
2022-10-04T23:16:14.664Z,90.46
2022-10-04T23:18:41.416Z,89.70
2022-10-04T23:21:23.223Z,89.57
2022-10-04T23:23:50.329Z,89.36
2022-10-04T23:26:21.900Z,90.66
2022-10-04T23:28:48.384Z,90.23
2022-10-04T23:31:24.646Z,89.89
2022-10-04T23:33:51.957Z,90.45
2022-10-04T23:36:18.725Z,90.74
2022-10-04T23:38:49.629Z,90.37
2022-10-04T23:41:17.030Z,91.00
2022-10-04T23:43:43.510Z,90.70
2022-10-04T23:46:18.114Z,90.86
2022-10-04T23:48:45.106Z,90.43
2022-10-04T23:51:13.168Z,90.26
2022-10-04T23:53:39.952Z,90.40
2022-10-04T23:56:11.870Z,90.24
2022-10-04T23:58:39.827Z,90.21
